sensor_id;sensor_type;location;lat;lon;timestamp;temperature;humidity
36424;DHT22;22458;45.328;9.514;2022-12-04T00:00:13;16.10;75.60
36424;DHT22;22458;45.328;9.514;2022-12-04T00:02:40;16.00;76.20
36424;DHT22;22458;45.328;9.514;2022-12-04T00:05:07;15.90;75.90
36424;DHT22;22458;45.328;9.514;2022-12-04T00:07:33;15.80;76.30
36424;DHT22;22458;45.328;9.514;2022-12-04T00:09:59;15.70;76.40
36424;DHT22;22458;45.328;9.514;2022-12-04T00:12:25;15.70;76.40
36424;DHT22;22458;45.328;9.514;2022-12-04T00:14:51;15.80;76.50
36424;DHT22;22458;45.328;9.514;2022-12-04T00:17:16;15.80;76.40
36424;DHT22;22458;45.328;9.514;2022-12-04T00:19:42;15.70;76.30
36424;DHT22;22458;45.328;9.514;2022-12-04T00:22:08;15.70;76.50
36424;DHT22;22458;45.328;9.514;2022-12-04T00:24:34;15.70;76.60
36424;DHT22;22458;45.328;9.514;2022-12-04T00:26:59;15.80;76.50
36424;DHT22;22458;45.328;9.514;2022-12-04T00:29:25;15.70;76.30
36424;DHT22;22458;45.328;9.514;2022-12-04T00:31:51;15.70;76.50
36424;DHT22;22458;45.328;9.514;2022-12-04T00:34:16;15.60;76.80
36424;DHT22;22458;45.328;9.514;2022-12-04T00:36:42;15.50;76.90
36424;DHT22;22458;45.328;9.514;2022-12-04T00:39:08;15.40;77.10
36424;DHT22;22458;45.328;9.514;2022-12-04T00:41:34;15.40;77.10
36424;DHT22;22458;45.328;9.514;2022-12-04T00:44:01;15.40;77.30
36424;DHT22;22458;45.328;9.514;2022-12-04T00:46:27;15.30;77.30
36424;DHT22;22458;45.328;9.514;2022-12-04T00:48:53;15.30;77.50
36424;DHT22;22458;45.328;9.514;2022-12-04T00:51:21;15.30;77.50
36424;DHT22;22458;45.328;9.514;2022-12-04T00:53:48;15.40;77.40
36424;DHT22;22458;45.328;9.514;2022-12-04T00:56:16;15.40;77.30
36424;DHT22;22458;45.328;9.514;2022-12-04T00:58:42;15.40;77.40
36424;DHT22;22458;45.328;9.514;2022-12-04T01:01:11;15.40;77.30
36424;DHT22;22458;45.328;9.514;2022-12-04T01:03:38;15.50;77.30
36424;DHT22;22458;45.328;9.514;2022-12-04T01:06:05;15.40;77.80
36424;DHT22;22458;45.328;9.514;2022-12-04T01:08:31;15.40;77.20
36424;DHT22;22458;45.328;9.514;2022-12-04T01:10:57;15.40;77.40
36424;DHT22;22458;45.328;9.514;2022-12-04T01:13:23;15.30;77.60
36424;DHT22;22458;45.328;9.514;2022-12-04T01:15:49;15.30;77.70
36424;DHT22;22458;45.328;9.514;2022-12-04T01:18:16;15.30;77.60
36424;DHT22;22458;45.328;9.514;2022-12-04T01:20:51;15.50;77.60
36424;DHT22;22458;45.328;9.514;2022-12-04T01:23:17;15.50;77.30
36424;DHT22;22458;45.328;9.514;2022-12-04T01:25:55;15.60;77.00
36424;DHT22;22458;45.328;9.514;2022-12-04T01:28:22;15.60;76.90
36424;DHT22;22458;45.328;9.514;2022-12-04T01:31:06;15.70;76.80
36424;DHT22;22458;45.328;9.514;2022-12-04T01:33:35;15.70;76.70
36424;DHT22;22458;45.328;9.514;2022-12-04T01:36:02;15.70;76.60
36424;DHT22;22458;45.328;9.514;2022-12-04T01:38:28;15.70;76.60
36424;DHT22;22458;45.328;9.514;2022-12-04T01:40:55;15.70;76.70
36424;DHT22;22458;45.328;9.514;2022-12-04T01:43:21;15.60;76.80
36424;DHT22;22458;45.328;9.514;2022-12-04T01:45:58;15.60;76.90
36424;DHT22;22458;45.328;9.514;2022-12-04T01:48:31;15.50;77.20
36424;DHT22;22458;45.328;9.514;2022-12-04T01:51:05;15.60;77.20
36424;DHT22;22458;45.328;9.514;2022-12-04T01:53:33;15.60;77.00
36424;DHT22;22458;45.328;9.514;2022-12-04T01:56:00;15.60;77.00
36424;DHT22;22458;45.328;9.514;2022-12-04T01:58:30;15.60;77.10
36424;DHT22;22458;45.328;9.514;2022-12-04T02:01:00;15.60;77.10
36424;DHT22;22458;45.328;9.514;2022-12-04T02:03:26;15.60;77.00
36424;DHT22;22458;45.328;9.514;2022-12-04T02:05:52;15.50;76.90
36424;DHT22;22458;45.328;9.514;2022-12-04T02:08:18;15.50;77.20
36424;DHT22;22458;45.328;9.514;2022-12-04T02:10:55;15.40;77.60
36424;DHT22;22458;45.328;9.514;2022-12-04T02:13:35;15.40;77.70
36424;DHT22;22458;45.328;9.514;2022-12-04T02:21:35;15.20;78.00
36424;DHT22;22458;45.328;9.514;2022-12-04T02:24:25;15.20;78.30
36424;DHT22;22458;45.328;9.514;2022-12-04T02:26:58;15.10;78.50
36424;DHT22;22458;45.328;9.514;2022-12-04T02:29:33;15.20;78.40
36424;DHT22;22458;45.328;9.514;2022-12-04T02:37:28;15.60;77.60
36424;DHT22;22458;45.328;9.514;2022-12-04T02:41:01;15.40;77.60
36424;DHT22;22458;45.328;9.514;2022-12-04T02:43:07;15.10;78.50
36424;DHT22;22458;45.328;9.514;2022-12-04T02:45:43;14.60;79.90
36424;DHT22;22458;45.328;9.514;2022-12-04T02:48:15;14.20;81.50
36424;DHT22;22458;45.328;9.514;2022-12-04T02:50:42;13.80;82.50
36424;DHT22;22458;45.328;9.514;2022-12-04T02:53:24;13.70;83.30
36424;DHT22;22458;45.328;9.514;2022-12-04T02:55:59;13.60;83.60
36424;DHT22;22458;45.328;9.514;2022-12-04T02:58:32;13.60;83.60
36424;DHT22;22458;45.328;9.514;2022-12-04T03:01:00;13.60;83.80
36424;DHT22;22458;45.328;9.514;2022-12-04T03:03:29;13.60;83.90
36424;DHT22;22458;45.328;9.514;2022-12-04T03:06:09;13.60;84.00
36424;DHT22;22458;45.328;9.514;2022-12-04T03:08:46;13.60;83.90
36424;DHT22;22458;45.328;9.514;2022-12-04T03:11:12;13.70;83.50
36424;DHT22;22458;45.328;9.514;2022-12-04T03:13:47;13.90;83.30
36424;DHT22;22458;45.328;9.514;2022-12-04T03:16:28;13.80;83.50
36424;DHT22;22458;45.328;9.514;2022-12-04T03:19:00;13.70;83.90
36424;DHT22;22458;45.328;9.514;2022-12-04T03:21:31;13.70;83.90
36424;DHT22;22458;45.328;9.514;2022-12-04T03:24:17;13.60;84.20
36424;DHT22;22458;45.328;9.514;2022-12-04T03:26:54;13.70;84.40
36424;DHT22;22458;45.328;9.514;2022-12-04T03:29:26;13.80;84.00
36424;DHT22;22458;45.328;9.514;2022-12-04T03:37:26;13.90;83.70
36424;DHT22;22458;45.328;9.514;2022-12-04T03:39:59;13.90;84.10
36424;DHT22;22458;45.328;9.514;2022-12-04T03:42:55;13.90;83.90
36424;DHT22;22458;45.328;9.514;2022-12-04T03:48:18;13.90;83.60
36424;DHT22;22458;45.328;9.514;2022-12-04T03:50:52;13.60;84.30
36424;DHT22;22458;45.328;9.514;2022-12-04T03:56:08;13.40;85.20
36424;DHT22;22458;45.328;9.514;2022-12-04T03:58:38;13.50;84.70
36424;DHT22;22458;45.328;9.514;2022-12-04T04:01:09;13.50;84.60
36424;DHT22;22458;45.328;9.514;2022-12-04T04:03:44;13.40;84.70
36424;DHT22;22458;45.328;9.514;2022-12-04T04:06:30;13.40;84.80
36424;DHT22;22458;45.328;9.514;2022-12-04T04:09:01;13.30;84.80
36424;DHT22;22458;45.328;9.514;2022-12-04T04:11:58;13.40;84.70
36424;DHT22;22458;45.328;9.514;2022-12-04T04:14:25;13.40;85.00
36424;DHT22;22458;45.328;9.514;2022-12-04T04:17:13;13.50;84.10
36424;DHT22;22458;45.328;9.514;2022-12-04T04:20:04;13.30;84.10
36424;DHT22;22458;45.328;9.514;2022-12-04T04:22:52;13.20;84.40
36424;DHT22;22458;45.328;9.514;2022-12-04T04:25:39;13.00;84.70
36424;DHT22;22458;45.328;9.514;2022-12-04T04:28:29;12.80;85.40
36424;DHT22;22458;45.328;9.514;2022-12-04T04:34:07;12.50;86.40
36424;DHT22;22458;45.328;9.514;2022-12-04T04:36:54;12.40;86.90
36424;DHT22;22458;45.328;9.514;2022-12-04T04:39:34;12.00;87.60
36424;DHT22;22458;45.328;9.514;2022-12-04T04:42:28;11.70;88.80
36424;DHT22;22458;45.328;9.514;2022-12-04T04:48:12;11.40;90.20
36424;DHT22;22458;45.328;9.514;2022-12-04T04:50:40;11.20;90.50
36424;DHT22;22458;45.328;9.514;2022-12-04T04:53:14;11.20;90.60
36424;DHT22;22458;45.328;9.514;2022-12-04T04:55:42;11.30;90.70
36424;DHT22;22458;45.328;9.514;2022-12-04T04:58:12;11.30;90.70
36424;DHT22;22458;45.328;9.514;2022-12-04T05:00:38;11.20;90.60
36424;DHT22;22458;45.328;9.514;2022-12-04T05:03:05;11.20;90.60
36424;DHT22;22458;45.328;9.514;2022-12-04T05:05:31;11.20;90.80
36424;DHT22;22458;45.328;9.514;2022-12-04T05:07:56;11.10;90.90
36424;DHT22;22458;45.328;9.514;2022-12-04T05:10:22;11.10;90.90
36424;DHT22;22458;45.328;9.514;2022-12-04T05:12:48;11.10;91.00
36424;DHT22;22458;45.328;9.514;2022-12-04T05:15:14;11.00;91.10
36424;DHT22;22458;45.328;9.514;2022-12-04T05:17:40;11.00;91.20
36424;DHT22;22458;45.328;9.514;2022-12-04T05:20:06;11.00;91.30
36424;DHT22;22458;45.328;9.514;2022-12-04T05:22:34;11.00;91.30
36424;DHT22;22458;45.328;9.514;2022-12-04T05:25:00;11.00;91.30
36424;DHT22;22458;45.328;9.514;2022-12-04T05:27:27;11.00;91.30
36424;DHT22;22458;45.328;9.514;2022-12-04T05:29:55;11.00;91.30
36424;DHT22;22458;45.328;9.514;2022-12-04T05:32:23;11.00;91.30
36424;DHT22;22458;45.328;9.514;2022-12-04T05:34:51;11.00;91.40
36424;DHT22;22458;45.328;9.514;2022-12-04T05:37:16;11.00;91.50
36424;DHT22;22458;45.328;9.514;2022-12-04T05:39:42;11.00;91.50
36424;DHT22;22458;45.328;9.514;2022-12-04T05:42:09;11.10;91.50
36424;DHT22;22458;45.328;9.514;2022-12-04T05:44:34;11.10;91.50
36424;DHT22;22458;45.328;9.514;2022-12-04T05:47:00;11.10;91.40
36424;DHT22;22458;45.328;9.514;2022-12-04T05:49:28;11.10;91.30
36424;DHT22;22458;45.328;9.514;2022-12-04T05:51:54;11.20;91.40
36424;DHT22;22458;45.328;9.514;2022-12-04T05:54:20;11.20;91.40
36424;DHT22;22458;45.328;9.514;2022-12-04T05:56:46;11.30;91.50
36424;DHT22;22458;45.328;9.514;2022-12-04T05:59:13;11.40;91.40
36424;DHT22;22458;45.328;9.514;2022-12-04T06:01:38;11.50;91.20
36424;DHT22;22458;45.328;9.514;2022-12-04T06:04:04;11.40;91.10
36424;DHT22;22458;45.328;9.514;2022-12-04T06:06:30;11.40;91.20
36424;DHT22;22458;45.328;9.514;2022-12-04T06:08:57;11.30;91.30
36424;DHT22;22458;45.328;9.514;2022-12-04T06:11:26;11.40;91.30
36424;DHT22;22458;45.328;9.514;2022-12-04T06:13:53;11.40;91.30
36424;DHT22;22458;45.328;9.514;2022-12-04T06:16:34;11.50;91.30
36424;DHT22;22458;45.328;9.514;2022-12-04T06:19:03;11.50;91.20
36424;DHT22;22458;45.328;9.514;2022-12-04T06:21:33;11.50;91.20
36424;DHT22;22458;45.328;9.514;2022-12-04T06:23:59;11.50;91.20
36424;DHT22;22458;45.328;9.514;2022-12-04T06:26:25;11.40;91.20
36424;DHT22;22458;45.328;9.514;2022-12-04T06:28:55;11.40;91.30
36424;DHT22;22458;45.328;9.514;2022-12-04T06:31:22;11.40;91.40
36424;DHT22;22458;45.328;9.514;2022-12-04T06:33:48;11.40;91.40
36424;DHT22;22458;45.328;9.514;2022-12-04T06:36:17;11.50;91.40
36424;DHT22;22458;45.328;9.514;2022-12-04T06:38:43;11.60;91.30
36424;DHT22;22458;45.328;9.514;2022-12-04T06:41:14;11.60;91.30
36424;DHT22;22458;45.328;9.514;2022-12-04T06:43:40;11.60;91.20
36424;DHT22;22458;45.328;9.514;2022-12-04T06:46:07;11.60;91.20
36424;DHT22;22458;45.328;9.514;2022-12-04T06:48:34;11.50;91.20
36424;DHT22;22458;45.328;9.514;2022-12-04T06:51:05;11.50;91.20
36424;DHT22;22458;45.328;9.514;2022-12-04T06:53:32;11.30;91.40
36424;DHT22;22458;45.328;9.514;2022-12-04T06:55:59;11.10;91.70
36424;DHT22;22458;45.328;9.514;2022-12-04T06:58:26;10.80;92.20
36424;DHT22;22458;45.328;9.514;2022-12-04T07:00:52;10.60;92.40
36424;DHT22;22458;45.328;9.514;2022-12-04T07:03:18;10.50;92.70
36424;DHT22;22458;45.328;9.514;2022-12-04T07:05:44;10.40;92.90
36424;DHT22;22458;45.328;9.514;2022-12-04T07:08:10;10.40;93.10
36424;DHT22;22458;45.328;9.514;2022-12-04T07:10:36;10.40;93.10
36424;DHT22;22458;45.328;9.514;2022-12-04T07:13:03;10.30;93.20
36424;DHT22;22458;45.328;9.514;2022-12-04T07:15:29;10.30;93.20
36424;DHT22;22458;45.328;9.514;2022-12-04T07:17:56;10.20;93.40
36424;DHT22;22458;45.328;9.514;2022-12-04T07:20:22;10.20;93.50
36424;DHT22;22458;45.328;9.514;2022-12-04T07:22:48;10.20;93.60
36424;DHT22;22458;45.328;9.514;2022-12-04T07:25:14;10.20;93.70
36424;DHT22;22458;45.328;9.514;2022-12-04T07:27:40;10.20;93.80
36424;DHT22;22458;45.328;9.514;2022-12-04T07:30:06;10.30;93.70
36424;DHT22;22458;45.328;9.514;2022-12-04T07:32:32;10.40;93.60
36424;DHT22;22458;45.328;9.514;2022-12-04T07:34:58;10.50;93.50
36424;DHT22;22458;45.328;9.514;2022-12-04T07:37:24;10.60;93.30
36424;DHT22;22458;45.328;9.514;2022-12-04T07:39:50;10.70;93.20
36424;DHT22;22458;45.328;9.514;2022-12-04T07:42:17;10.80;93.10
36424;DHT22;22458;45.328;9.514;2022-12-04T07:44:42;10.80;93.00
36424;DHT22;22458;45.328;9.514;2022-12-04T07:47:08;10.80;92.90
36424;DHT22;22458;45.328;9.514;2022-12-04T07:49:34;10.90;92.90
36424;DHT22;22458;45.328;9.514;2022-12-04T07:52:00;11.00;92.80
36424;DHT22;22458;45.328;9.514;2022-12-04T07:54:25;10.90;92.80
36424;DHT22;22458;45.328;9.514;2022-12-04T07:56:51;10.90;92.90
36424;DHT22;22458;45.328;9.514;2022-12-04T07:59:17;10.90;92.80
36424;DHT22;22458;45.328;9.514;2022-12-04T08:01:43;10.90;92.90
36424;DHT22;22458;45.328;9.514;2022-12-04T08:04:09;10.90;92.90
36424;DHT22;22458;45.328;9.514;2022-12-04T08:06:35;11.00;93.00
36424;DHT22;22458;45.328;9.514;2022-12-04T08:09:02;11.00;92.90
36424;DHT22;22458;45.328;9.514;2022-12-04T08:11:28;11.10;92.80
36424;DHT22;22458;45.328;9.514;2022-12-04T08:13:56;11.20;92.60
36424;DHT22;22458;45.328;9.514;2022-12-04T08:16:23;11.20;92.50
36424;DHT22;22458;45.328;9.514;2022-12-04T08:18:49;11.30;92.40
36424;DHT22;22458;45.328;9.514;2022-12-04T08:21:18;11.30;92.40
36424;DHT22;22458;45.328;9.514;2022-12-04T08:23:46;11.30;92.30
36424;DHT22;22458;45.328;9.514;2022-12-04T08:26:12;11.40;92.30
36424;DHT22;22458;45.328;9.514;2022-12-04T08:28:39;11.40;92.10
36424;DHT22;22458;45.328;9.514;2022-12-04T08:31:10;11.50;92.10
36424;DHT22;22458;45.328;9.514;2022-12-04T08:33:37;11.50;92.00
36424;DHT22;22458;45.328;9.514;2022-12-04T08:36:07;11.50;91.90
36424;DHT22;22458;45.328;9.514;2022-12-04T08:38:33;11.50;91.90
36424;DHT22;22458;45.328;9.514;2022-12-04T08:41:01;11.50;91.90
36424;DHT22;22458;45.328;9.514;2022-12-04T08:43:27;11.50;92.10
36424;DHT22;22458;45.328;9.514;2022-12-04T08:46:01;11.60;91.80
36424;DHT22;22458;45.328;9.514;2022-12-04T08:48:27;11.60;91.70
36424;DHT22;22458;45.328;9.514;2022-12-04T08:50:53;11.70;91.60
36424;DHT22;22458;45.328;9.514;2022-12-04T08:53:20;11.60;91.60
36424;DHT22;22458;45.328;9.514;2022-12-04T08:55:46;11.60;91.50
36424;DHT22;22458;45.328;9.514;2022-12-04T08:58:12;11.60;91.60
36424;DHT22;22458;45.328;9.514;2022-12-04T09:00:38;11.60;91.50
36424;DHT22;22458;45.328;9.514;2022-12-04T09:03:04;11.60;91.60
36424;DHT22;22458;45.328;9.514;2022-12-04T09:05:32;11.60;91.50
36424;DHT22;22458;45.328;9.514;2022-12-04T09:08:02;11.60;91.50
36424;DHT22;22458;45.328;9.514;2022-12-04T09:10:27;11.50;91.50
36424;DHT22;22458;45.328;9.514;2022-12-04T09:13:01;11.50;91.60
36424;DHT22;22458;45.328;9.514;2022-12-04T09:16:30;11.50;91.60
36424;DHT22;22458;45.328;9.514;2022-12-04T09:18:56;11.40;91.50
36424;DHT22;22458;45.328;9.514;2022-12-04T09:21:23;11.40;91.60
36424;DHT22;22458;45.328;9.514;2022-12-04T09:23:50;11.30;91.70
36424;DHT22;22458;45.328;9.514;2022-12-04T09:26:22;11.30;91.60
36424;DHT22;22458;45.328;9.514;2022-12-04T09:28:49;11.20;91.60
36424;DHT22;22458;45.328;9.514;2022-12-04T09:31:15;11.30;91.70
36424;DHT22;22458;45.328;9.514;2022-12-04T09:33:42;11.20;91.80
36424;DHT22;22458;45.328;9.514;2022-12-04T09:36:08;11.20;91.80
36424;DHT22;22458;45.328;9.514;2022-12-04T09:38:33;11.20;91.80
36424;DHT22;22458;45.328;9.514;2022-12-04T09:41:22;11.10;91.90
36424;DHT22;22458;45.328;9.514;2022-12-04T09:44:12;11.20;91.90
36424;DHT22;22458;45.328;9.514;2022-12-04T09:47:20;11.20;92.00
36424;DHT22;22458;45.328;9.514;2022-12-04T09:55:11;11.30;91.80
36424;DHT22;22458;45.328;9.514;2022-12-04T09:57:43;11.30;91.90
36424;DHT22;22458;45.328;9.514;2022-12-04T10:00:15;11.30;91.90
36424;DHT22;22458;45.328;9.514;2022-12-04T10:02:47;11.40;92.00
36424;DHT22;22458;45.328;9.514;2022-12-04T10:08:02;11.50;91.80
36424;DHT22;22458;45.328;9.514;2022-12-04T10:10:53;11.50;91.80
36424;DHT22;22458;45.328;9.514;2022-12-04T10:16:18;11.50;91.80
36424;DHT22;22458;45.328;9.514;2022-12-04T10:19:08;11.40;91.90
36424;DHT22;22458;45.328;9.514;2022-12-04T10:24:38;11.50;91.80
36424;DHT22;22458;45.328;9.514;2022-12-04T10:33:54;11.50;92.00
36424;DHT22;22458;45.328;9.514;2022-12-04T10:36:32;11.50;92.00
36424;DHT22;22458;45.328;9.514;2022-12-04T10:39:04;11.50;92.00
36424;DHT22;22458;45.328;9.514;2022-12-04T10:44:26;11.50;92.00
36424;DHT22;22458;45.328;9.514;2022-12-04T10:46:58;11.50;92.00
36424;DHT22;22458;45.328;9.514;2022-12-04T10:49:33;11.60;92.10
36424;DHT22;22458;45.328;9.514;2022-12-04T10:52:00;11.60;92.30
36424;DHT22;22458;45.328;9.514;2022-12-04T10:57:16;11.60;92.00
36424;DHT22;22458;45.328;9.514;2022-12-04T11:02:27;11.60;92.00
36424;DHT22;22458;45.328;9.514;2022-12-04T11:05:21;11.70;92.10
36424;DHT22;22458;45.328;9.514;2022-12-04T11:07:48;11.70;92.00
36424;DHT22;22458;45.328;9.514;2022-12-04T11:10:33;11.70;92.10
36424;DHT22;22458;45.328;9.514;2022-12-04T11:15:45;11.80;92.00
36424;DHT22;22458;45.328;9.514;2022-12-04T11:18:26;11.80;92.00
36424;DHT22;22458;45.328;9.514;2022-12-04T11:20:58;11.80;91.90
36424;DHT22;22458;45.328;9.514;2022-12-04T11:23:26;11.90;91.90
36424;DHT22;22458;45.328;9.514;2022-12-04T11:25:56;11.90;91.90
36424;DHT22;22458;45.328;9.514;2022-12-04T11:28:25;12.00;91.90
36424;DHT22;22458;45.328;9.514;2022-12-04T11:30:55;12.10;91.90
36424;DHT22;22458;45.328;9.514;2022-12-04T11:33:33;12.20;91.80
36424;DHT22;22458;45.328;9.514;2022-12-04T11:36:04;12.20;91.70
36424;DHT22;22458;45.328;9.514;2022-12-04T11:38:33;12.20;91.60
36424;DHT22;22458;45.328;9.514;2022-12-04T11:41:01;12.20;91.80
36424;DHT22;22458;45.328;9.514;2022-12-04T11:43:29;12.20;91.60
36424;DHT22;22458;45.328;9.514;2022-12-04T11:45:59;12.20;91.60
36424;DHT22;22458;45.328;9.514;2022-12-04T11:48:26;12.20;91.70
36424;DHT22;22458;45.328;9.514;2022-12-04T11:51:47;12.20;91.70
36424;DHT22;22458;45.328;9.514;2022-12-04T11:54:28;12.20;91.60
36424;DHT22;22458;45.328;9.514;2022-12-04T11:57:02;12.10;91.70
36424;DHT22;22458;45.328;9.514;2022-12-04T12:05:17;12.30;91.50
36424;DHT22;22458;45.328;9.514;2022-12-04T12:10:48;12.30;91.60
36424;DHT22;22458;45.328;9.514;2022-12-04T12:14:10;12.30;91.70
36424;DHT22;22458;45.328;9.514;2022-12-04T12:16:56;12.40;91.60
36424;DHT22;22458;45.328;9.514;2022-12-04T12:20:29;12.40;91.50
36424;DHT22;22458;45.328;9.514;2022-12-04T12:25:16;12.30;91.50
36424;DHT22;22458;45.328;9.514;2022-12-04T12:30:21;12.40;91.60
36424;DHT22;22458;45.328;9.514;2022-12-04T12:32:58;12.50;91.60
36424;DHT22;22458;45.328;9.514;2022-12-04T12:38:21;12.50;91.50
36424;DHT22;22458;45.328;9.514;2022-12-04T12:41:00;12.60;91.40
36424;DHT22;22458;45.328;9.514;2022-12-04T12:43:30;12.60;91.40
36424;DHT22;22458;45.328;9.514;2022-12-04T12:46:10;12.70;91.40
36424;DHT22;22458;45.328;9.514;2022-12-04T12:53:57;12.80;91.30
36424;DHT22;22458;45.328;9.514;2022-12-04T12:56:34;12.80;91.40
36424;DHT22;22458;45.328;9.514;2022-12-04T12:59:04;12.90;91.10
36424;DHT22;22458;45.328;9.514;2022-12-04T13:01:48;12.90;91.20
36424;DHT22;22458;45.328;9.514;2022-12-04T13:04:29;12.90;91.10
36424;DHT22;22458;45.328;9.514;2022-12-04T13:10:09;12.90;91.10
36424;DHT22;22458;45.328;9.514;2022-12-04T13:12:46;12.90;91.00
36424;DHT22;22458;45.328;9.514;2022-12-04T13:15:16;13.00;91.00
36424;DHT22;22458;45.328;9.514;2022-12-04T13:17:43;13.00;91.00
36424;DHT22;22458;45.328;9.514;2022-12-04T13:20:23;12.90;91.00
36424;DHT22;22458;45.328;9.514;2022-12-04T13:26:04;13.00;90.90
36424;DHT22;22458;45.328;9.514;2022-12-04T13:29:00;13.00;91.00
36424;DHT22;22458;45.328;9.514;2022-12-04T13:31:54;13.00;90.90
36424;DHT22;22458;45.328;9.514;2022-12-04T13:34:45;13.10;90.90
36424;DHT22;22458;45.328;9.514;2022-12-04T13:37:24;13.10;90.90
36424;DHT22;22458;45.328;9.514;2022-12-04T13:42:27;13.20;90.70
36424;DHT22;22458;45.328;9.514;2022-12-04T13:44:58;13.30;90.70
36424;DHT22;22458;45.328;9.514;2022-12-04T13:47:30;13.30;90.60
36424;DHT22;22458;45.328;9.514;2022-12-04T13:52:44;13.40;90.60
36424;DHT22;22458;45.328;9.514;2022-12-04T13:55:25;13.40;90.60
36424;DHT22;22458;45.328;9.514;2022-12-04T13:58:00;13.50;90.50
36424;DHT22;22458;45.328;9.514;2022-12-04T14:00:28;13.50;90.40
36424;DHT22;22458;45.328;9.514;2022-12-04T14:02:59;13.50;90.40
36424;DHT22;22458;45.328;9.514;2022-12-04T14:05:31;13.60;90.40
36424;DHT22;22458;45.328;9.514;2022-12-04T14:13:53;13.60;90.20
36424;DHT22;22458;45.328;9.514;2022-12-04T14:16:37;13.70;90.10
36424;DHT22;22458;45.328;9.514;2022-12-04T14:19:05;13.80;90.10
36424;DHT22;22458;45.328;9.514;2022-12-04T14:21:57;13.80;90.00
36424;DHT22;22458;45.328;9.514;2022-12-04T14:24:36;13.80;89.90
36424;DHT22;22458;45.328;9.514;2022-12-04T14:27:31;13.90;90.00
36424;DHT22;22458;45.328;9.514;2022-12-04T14:29:59;13.90;89.70
36424;DHT22;22458;45.328;9.514;2022-12-04T14:32:28;13.90;89.70
36424;DHT22;22458;45.328;9.514;2022-12-04T14:34:57;14.00;89.60
36424;DHT22;22458;45.328;9.514;2022-12-04T14:37:31;14.00;89.50
36424;DHT22;22458;45.328;9.514;2022-12-04T14:39:59;14.00;89.30
36424;DHT22;22458;45.328;9.514;2022-12-04T14:42:38;14.00;89.20
36424;DHT22;22458;45.328;9.514;2022-12-04T14:45:18;13.90;89.10
36424;DHT22;22458;45.328;9.514;2022-12-04T14:50:41;13.90;89.20
36424;DHT22;22458;45.328;9.514;2022-12-04T14:58:32;13.90;89.20
36424;DHT22;22458;45.328;9.514;2022-12-04T15:01:03;13.90;89.40
36424;DHT22;22458;45.328;9.514;2022-12-04T15:03:34;13.90;89.30
36424;DHT22;22458;45.328;9.514;2022-12-04T15:06:07;13.90;89.30
36424;DHT22;22458;45.328;9.514;2022-12-04T15:08:35;14.00;89.30
36424;DHT22;22458;45.328;9.514;2022-12-04T15:11:01;14.00;89.20
36424;DHT22;22458;45.328;9.514;2022-12-04T15:13:49;14.00;89.10
36424;DHT22;22458;45.328;9.514;2022-12-04T15:16:17;14.10;89.00
36424;DHT22;22458;45.328;9.514;2022-12-04T15:18:57;14.10;88.90
36424;DHT22;22458;45.328;9.514;2022-12-04T15:21:43;14.10;88.90
36424;DHT22;22458;45.328;9.514;2022-12-04T15:24:17;14.10;88.90
36424;DHT22;22458;45.328;9.514;2022-12-04T15:33:24;14.10;88.70
36424;DHT22;22458;45.328;9.514;2022-12-04T15:35:56;14.10;88.80
36424;DHT22;22458;45.328;9.514;2022-12-04T15:38:23;14.10;88.80
36424;DHT22;22458;45.328;9.514;2022-12-04T15:40:56;14.10;88.80
36424;DHT22;22458;45.328;9.514;2022-12-04T15:43:29;14.10;88.70
36424;DHT22;22458;45.328;9.514;2022-12-04T15:45:56;14.10;88.70
36424;DHT22;22458;45.328;9.514;2022-12-04T15:48:29;14.10;88.70
36424;DHT22;22458;45.328;9.514;2022-12-04T15:50:57;14.10;88.70
36424;DHT22;22458;45.328;9.514;2022-12-04T15:53:30;14.10;88.70
36424;DHT22;22458;45.328;9.514;2022-12-04T15:56:00;14.10;88.70
36424;DHT22;22458;45.328;9.514;2022-12-04T15:58:38;14.10;88.70
36424;DHT22;22458;45.328;9.514;2022-12-04T16:01:09;14.10;88.70
36424;DHT22;22458;45.328;9.514;2022-12-04T16:03:37;14.10;88.70
36424;DHT22;22458;45.328;9.514;2022-12-04T16:06:23;14.10;88.70
36424;DHT22;22458;45.328;9.514;2022-12-04T16:09:11;14.10;88.70
36424;DHT22;22458;45.328;9.514;2022-12-04T16:11:38;14.10;88.80
36424;DHT22;22458;45.328;9.514;2022-12-04T16:16:38;14.40;87.50
36424;DHT22;22458;45.328;9.514;2022-12-04T16:19:15;14.80;86.40
36424;DHT22;22458;45.328;9.514;2022-12-04T16:21:42;15.10;85.10
36424;DHT22;22458;45.328;9.514;2022-12-04T16:24:10;15.40;84.00
36424;DHT22;22458;45.328;9.514;2022-12-04T16:26:36;15.70;83.00
36424;DHT22;22458;45.328;9.514;2022-12-04T16:29:02;15.90;82.10
36424;DHT22;22458;45.328;9.514;2022-12-04T16:31:28;16.20;81.30
36424;DHT22;22458;45.328;9.514;2022-12-04T16:33:54;16.40;80.50
36424;DHT22;22458;45.328;9.514;2022-12-04T16:36:19;16.60;79.80
36424;DHT22;22458;45.328;9.514;2022-12-04T16:38:45;16.70;79.20
36424;DHT22;22458;45.328;9.514;2022-12-04T16:41:16;16.90;78.80
36424;DHT22;22458;45.328;9.514;2022-12-04T16:43:42;17.00;78.40
36424;DHT22;22458;45.328;9.514;2022-12-04T16:46:12;17.00;78.10
36424;DHT22;22458;45.328;9.514;2022-12-04T16:48:40;17.10;77.80
36424;DHT22;22458;45.328;9.514;2022-12-04T16:51:11;17.10;77.60
36424;DHT22;22458;45.328;9.514;2022-12-04T16:53:39;17.10;77.40
36424;DHT22;22458;45.328;9.514;2022-12-04T16:56:05;17.20;77.20
36424;DHT22;22458;45.328;9.514;2022-12-04T16:58:31;17.30;77.00
36424;DHT22;22458;45.328;9.514;2022-12-04T17:00:57;17.30;76.80
36424;DHT22;22458;45.328;9.514;2022-12-04T17:03:26;17.40;76.60
36424;DHT22;22458;45.328;9.514;2022-12-04T17:05:53;17.40;76.40
36424;DHT22;22458;45.328;9.514;2022-12-04T17:08:19;17.40;76.30
36424;DHT22;22458;45.328;9.514;2022-12-04T17:10:45;17.50;76.20
36424;DHT22;22458;45.328;9.514;2022-12-04T17:13:11;17.40;76.20
36424;DHT22;22458;45.328;9.514;2022-12-04T17:15:36;17.40;76.30
36424;DHT22;22458;45.328;9.514;2022-12-04T17:18:02;17.40;76.20
36424;DHT22;22458;45.328;9.514;2022-12-04T17:20:28;17.50;76.10
36424;DHT22;22458;45.328;9.514;2022-12-04T17:22:56;17.40;75.90
36424;DHT22;22458;45.328;9.514;2022-12-04T17:25:22;17.50;75.90
36424;DHT22;22458;45.328;9.514;2022-12-04T17:27:48;17.40;75.80
36424;DHT22;22458;45.328;9.514;2022-12-04T17:30:15;17.40;75.90
36424;DHT22;22458;45.328;9.514;2022-12-04T17:32:41;17.40;75.90
36424;DHT22;22458;45.328;9.514;2022-12-04T17:35:08;17.30;75.80
36424;DHT22;22458;45.328;9.514;2022-12-04T17:37:35;17.40;75.80
36424;DHT22;22458;45.328;9.514;2022-12-04T17:40:04;17.30;75.90
36424;DHT22;22458;45.328;9.514;2022-12-04T17:42:31;17.40;76.00
36424;DHT22;22458;45.328;9.514;2022-12-04T17:44:57;17.30;75.80
36424;DHT22;22458;45.328;9.514;2022-12-04T17:47:23;17.30;75.80
36424;DHT22;22458;45.328;9.514;2022-12-04T17:49:49;17.30;75.90
36424;DHT22;22458;45.328;9.514;2022-12-04T17:52:14;17.30;75.90